Time;durP1;ratioP1;P1;durP2;ratioP2;P2;SDS_P1;SDS_P2;PMS_P1;PMS_P2;Temp;Humidity;BMP_temperature;BMP_pressure;BME280_temperature;BME280_humidity;BME280_pressure;Samples;Min_cycle;Max_cycle;Signal;HPM_P1;HPM_P2
2021/05/08 00:02:21;;;;;;;6.22;4.72;;;;;;;;;;5019748;28;20028;-80
2021/05/08 00:04:47;;;;;;;6.03;4.43;;;;;;;;;;5036020;28;20123;-81
2021/05/08 00:07:12;;;;;;;6.90;4.30;;;;;;;;;;5003636;28;20036;-80
2021/05/08 00:09:37;;;;;;;5.93;4.63;;;;;;;;;;5007724;28;20681;-80
2021/05/08 00:12:03;;;;;;;6.07;4.45;;;;;;;;;;5038698;28;20047;-80
2021/05/08 00:14:29;;;;;;;7.55;4.22;;;;;;;;;;5022428;28;20459;-80
2021/05/08 00:16:54;;;;;;;5.43;3.92;;;;;;;;;;5052213;28;20048;-80
2021/05/08 00:19:20;;;;;;;5.72;4.30;;;;;;;;;;5019589;28;20442;-81
2021/05/08 00:21:46;;;;;;;8.35;3.95;;;;;;;;;;5027568;28;20040;-81
2021/05/08 00:24:11;;;;;;;6.13;4.65;;;;;;;;;;5022827;28;20051;-81
2021/05/08 00:26:37;;;;;;;5.43;3.65;;;;;;;;;;5038719;28;20036;-81
2021/05/08 00:29:02;;;;;;;5.50;4.13;;;;;;;;;;5056418;28;20059;-80
2021/05/08 00:31:28;;;;;;;5.88;4.05;;;;;;;;;;5055448;28;20029;-80
2021/05/08 00:33:53;;;;;;;6.88;4.20;;;;;;;;;;5055570;28;20049;-80
2021/05/08 00:36:19;;;;;;;4.25;2.97;;;;;;;;;;5039313;28;20037;-80
2021/05/08 00:38:45;;;;;;;4.63;3.72;;;;;;;;;;5055723;28;20055;-82
2021/05/08 00:41:14;;;;;;;5.47;3.33;;;;;;;;;;5055692;28;20033;-80
2021/05/08 00:43:39;;;;;;;5.38;3.20;;;;;;;;;;5038418;28;20043;-80
2021/05/08 00:46:05;;;;;;;4.95;3.63;;;;;;;;;;5052181;28;20162;-80
2021/05/08 00:48:30;;;;;;;4.32;3.03;;;;;;;;;;5035668;28;20411;-80
2021/05/08 00:50:57;;;;;;;4.88;3.38;;;;;;;;;;5035569;28;20036;-80
2021/05/08 00:53:22;;;;;;;5.07;3.28;;;;;;;;;;5035370;28;20047;-81
2021/05/08 00:55:48;;;;;;;4.20;3.50;;;;;;;;;;5034961;28;20028;-81
2021/05/08 00:58:19;;;;;;;5.22;3.70;;;;;;;;;;5035139;28;20091;-80
2021/05/08 01:00:47;;;;;;;6.13;4.00;;;;;;;;;;5035502;28;20029;-79
2021/05/08 01:03:13;;;;;;;4.60;3.33;;;;;;;;;;5002294;28;20295;-80
2021/05/08 01:05:39;;;;;;;4.53;3.10;;;;;;;;;;5022109;28;20056;-79
2021/05/08 01:08:04;;;;;;;4.90;3.30;;;;;;;;;;5035704;28;20060;-79
2021/05/08 01:10:30;;;;;;;4.65;3.03;;;;;;;;;;5035027;28;20052;-79
2021/05/08 01:13:00;;;;;;;4.50;3.05;;;;;;;;;;5009402;28;20510;-79
2021/05/08 01:15:25;;;;;;;4.65;3.10;;;;;;;;;;5034980;28;20041;-79
2021/05/08 01:17:51;;;;;;;4.53;2.97;;;;;;;;;;5051674;28;20039;-79
2021/05/08 01:20:17;;;;;;;4.00;3.13;;;;;;;;;;5051783;28;20076;-80
2021/05/08 01:22:42;;;;;;;5.15;3.33;;;;;;;;;;5034881;28;20033;-79
2021/05/08 01:25:10;;;;;;;4.97;3.03;;;;;;;;;;5014932;28;20041;-78
2021/05/08 01:27:46;;;;;;;3.90;2.60;;;;;;;;;;5052092;28;20021;-79
2021/05/08 01:30:17;;;;;;;4.68;2.75;;;;;;;;;;5044615;28;20052;-80
2021/05/08 01:32:43;;;;;;;3.08;2.33;;;;;;;;;;5029291;28;20178;-80
2021/05/08 01:35:09;;;;;;;4.30;2.53;;;;;;;;;;5028860;28;20078;-80
2021/05/08 01:37:34;;;;;;;4.20;2.90;;;;;;;;;;5034276;28;20068;-80
2021/05/08 01:40:05;;;;;;;3.42;2.47;;;;;;;;;;5036637;28;20037;-79
2021/05/08 01:42:30;;;;;;;4.45;2.90;;;;;;;;;;5034655;28;20127;-79
2021/05/08 01:44:56;;;;;;;4.38;2.92;;;;;;;;;;5054258;28;20111;-79
2021/05/08 01:47:21;;;;;;;3.58;2.50;;;;;;;;;;5037554;28;20146;-80
2021/05/08 01:49:47;;;;;;;4.25;2.92;;;;;;;;;;5037919;28;20051;-80
2021/05/08 01:52:12;;;;;;;3.97;2.78;;;;;;;;;;5037381;28;20032;-80
2021/05/08 01:54:37;;;;;;;3.30;2.47;;;;;;;;;;5037605;28;20032;-79
2021/05/08 01:57:03;;;;;;;4.43;2.60;;;;;;;;;;5053910;28;20037;-79
2021/05/08 01:59:29;;;;;;;3.97;2.60;;;;;;;;;;5037628;28;20105;-79
2021/05/08 02:01:54;;;;;;;3.45;2.30;;;;;;;;;;5017459;28;20041;-79
2021/05/08 02:04:19;;;;;;;4.10;2.33;;;;;;;;;;5046647;28;20123;-79
2021/05/08 02:06:47;;;;;;;3.58;2.20;;;;;;;;;;5037184;28;20505;-79
2021/05/08 02:09:12;;;;;;;4.07;2.65;;;;;;;;;;5021059;28;20039;-79
2021/05/08 02:11:38;;;;;;;3.05;2.00;;;;;;;;;;5033807;28;20973;-80
2021/05/08 02:14:03;;;;;;;3.55;2.40;;;;;;;;;;5017206;28;20086;-79
2021/05/08 02:16:29;;;;;;;4.72;2.58;;;;;;;;;;5017419;28;20557;-79
2021/05/08 02:18:54;;;;;;;3.25;2.28;;;;;;;;;;5017383;28;20470;-79
2021/05/08 02:21:20;;;;;;;4.20;2.53;;;;;;;;;;5018680;28;20062;-79
2021/05/08 02:23:45;;;;;;;4.68;2.88;;;;;;;;;;5034132;28;20047;-79
2021/05/08 02:26:11;;;;;;;4.82;2.65;;;;;;;;;;5017234;28;20423;-79
2021/05/08 02:28:36;;;;;;;3.58;2.70;;;;;;;;;;5046123;28;20423;-79
2021/05/08 02:31:01;;;;;;;3.60;2.35;;;;;;;;;;5034071;28;20037;-80
2021/05/08 02:33:27;;;;;;;3.17;2.22;;;;;;;;;;5049937;28;20033;-79
2021/05/08 02:35:52;;;;;;;4.75;2.00;;;;;;;;;;5052383;28;20403;-80
2021/05/08 02:38:21;;;;;;;3.17;2.45;;;;;;;;;;5037299;28;20060;-79
2021/05/08 02:40:46;;;;;;;2.83;2.17;;;;;;;;;;5033697;28;20048;-80
2021/05/08 02:43:12;;;;;;;3.03;2.00;;;;;;;;;;5033128;28;20037;-79
2021/05/08 02:45:37;;;;;;;3.20;2.17;;;;;;;;;;5017396;28;20040;-79
2021/05/08 02:48:03;;;;;;;3.05;2.25;;;;;;;;;;5025280;28;20453;-81
2021/05/08 02:50:28;;;;;;;3.53;2.20;;;;;;;;;;5017258;28;20161;-79
2021/05/08 02:52:54;;;;;;;4.15;2.10;;;;;;;;;;5033417;28;20582;-79
2021/05/08 02:55:19;;;;;;;2.92;1.90;;;;;;;;;;5031072;28;20045;-79
2021/05/08 02:57:45;;;;;;;3.60;2.17;;;;;;;;;;5017001;28;20040;-79
2021/05/08 03:00:12;;;;;;;2.80;1.95;;;;;;;;;;5019875;28;20040;-79
2021/05/08 03:02:38;;;;;;;3.63;2.13;;;;;;;;;;5053735;28;20047;-79
2021/05/08 03:05:04;;;;;;;3.13;1.88;;;;;;;;;;5020116;28;20539;-79
2021/05/08 03:07:29;;;;;;;2.88;1.95;;;;;;;;;;5053314;28;20459;-80
2021/05/08 03:09:55;;;;;;;3.35;1.70;;;;;;;;;;5036855;28;20093;-79
2021/05/08 03:12:20;;;;;;;3.15;1.80;;;;;;;;;;5036699;28;20036;-79
2021/05/08 03:14:46;;;;;;;3.65;1.98;;;;;;;;;;5017602;28;20406;-79
2021/05/08 03:17:11;;;;;;;3.75;2.08;;;;;;;;;;5004108;28;20104;-79
2021/05/08 03:19:39;;;;;;;3.17;1.90;;;;;;;;;;5004852;28;20037;-80
2021/05/08 03:22:04;;;;;;;3.08;1.75;;;;;;;;;;5028246;28;20116;-79
2021/05/08 03:24:30;;;;;;;2.80;1.75;;;;;;;;;;5020889;28;20052;-79
2021/05/08 03:26:56;;;;;;;2.75;1.88;;;;;;;;;;5036865;28;20407;-79
2021/05/08 03:29:21;;;;;;;2.55;1.85;;;;;;;;;;5038391;28;20032;-80
2021/05/08 03:31:46;;;;;;;2.50;1.58;;;;;;;;;;5022435;28;20462;-80
2021/05/08 03:34:12;;;;;;;2.85;2.00;;;;;;;;;;5036290;28;20067;-79
2021/05/08 03:36:37;;;;;;;3.92;1.80;;;;;;;;;;5019615;28;20044;-80
2021/05/08 03:39:04;;;;;;;2.85;2.10;;;;;;;;;;5023822;28;20036;-79
2021/05/08 03:41:30;;;;;;;2.28;1.80;;;;;;;;;;5043941;28;20896;-79
2021/05/08 03:43:56;;;;;;;2.58;1.70;;;;;;;;;;5020271;28;20044;-79
2021/05/08 03:46:22;;;;;;;2.53;1.38;;;;;;;;;;5020541;28;20062;-79
2021/05/08 03:48:48;;;;;;;4.30;1.90;;;;;;;;;;5019803;28;20486;-79
2021/05/08 03:51:13;;;;;;;3.00;1.85;;;;;;;;;;5025761;28;20044;-79
2021/05/08 03:53:39;;;;;;;3.08;1.70;;;;;;;;;;5037561;28;20059;-79
2021/05/08 03:56:04;;;;;;;3.30;2.00;;;;;;;;;;5036356;28;20103;-79
2021/05/08 03:58:31;;;;;;;3.22;1.90;;;;;;;;;;5020065;28;20457;-79
2021/05/08 04:00:56;;;;;;;2.80;1.85;;;;;;;;;;5020180;28;20037;-79
2021/05/08 04:03:22;;;;;;;3.13;1.90;;;;;;;;;;5019161;28;20033;-79
2021/05/08 04:05:48;;;;;;;2.92;1.77;;;;;;;;;;5020231;28;20044;-79
2021/05/08 04:08:14;;;;;;;3.05;1.80;;;;;;;;;;5019935;28;20033;-79
2021/05/08 04:10:39;;;;;;;3.58;1.73;;;;;;;;;;5003799;28;20037;-79
2021/05/08 04:13:05;;;;;;;3.15;1.73;;;;;;;;;;5019102;28;20037;-79
2021/05/08 04:15:30;;;;;;;3.13;1.75;;;;;;;;;;5019787;28;20416;-79
2021/05/08 04:17:56;;;;;;;1.98;1.60;;;;;;;;;;5039046;28;20040;-79
2021/05/08 04:20:21;;;;;;;3.33;1.80;;;;;;;;;;5039377;28;20048;-79
2021/05/08 04:22:46;;;;;;;2.78;1.65;;;;;;;;;;5019552;28;20399;-79
2021/05/08 04:25:12;;;;;;;2.92;1.60;;;;;;;;;;5035592;28;20048;-79
2021/05/08 04:27:37;;;;;;;2.95;1.60;;;;;;;;;;5035557;28;20402;-79
2021/05/08 04:30:04;;;;;;;2.05;1.65;;;;;;;;;;5052623;28;20037;-80
2021/05/08 04:32:30;;;;;;;2.60;1.40;;;;;;;;;;5035546;28;20120;-79
2021/05/08 04:34:55;;;;;;;2.15;1.40;;;;;;;;;;5019752;28;20489;-80
2021/05/08 04:37:21;;;;;;;2.83;1.52;;;;;;;;;;5074710;28;20097;-79
2021/05/08 04:39:46;;;;;;;2.55;1.50;;;;;;;;;;5059231;28;20039;-79
2021/05/08 04:42:11;;;;;;;2.47;1.35;;;;;;;;;;5058504;28;20391;-79
2021/05/08 04:44:37;;;;;;;2.55;1.67;;;;;;;;;;5041377;28;20411;-79
2021/05/08 04:47:03;;;;;;;2.72;1.60;;;;;;;;;;5052155;28;20029;-79
2021/05/08 04:49:28;;;;;;;2.40;1.38;;;;;;;;;;5019247;28;20047;-79
2021/05/08 04:51:55;;;;;;;2.20;1.15;;;;;;;;;;5035307;28;20047;-79
2021/05/08 04:54:21;;;;;;;1.88;1.40;;;;;;;;;;5035893;28;20135;-79
2021/05/08 04:56:47;;;;;;;3.17;1.52;;;;;;;;;;5018634;28;20531;-79
2021/05/08 04:59:12;;;;;;;2.20;1.17;;;;;;;;;;5035727;28;20037;-79
2021/05/08 05:01:38;;;;;;;2.00;1.45;;;;;;;;;;5034490;28;20580;-79
2021/05/08 05:04:03;;;;;;;3.75;1.50;;;;;;;;;;5002191;28;20041;-79
2021/05/08 05:06:28;;;;;;;2.53;1.30;;;;;;;;;;5023744;28;20079;-79
2021/05/08 05:08:54;;;;;;;2.08;1.27;;;;;;;;;;5018701;28;20079;-80
2021/05/08 05:11:22;;;;;;;1.67;1.00;;;;;;;;;;5035096;28;20036;-79
2021/05/08 05:13:48;;;;;;;2.45;1.08;;;;;;;;;;5018766;28;20068;-80
2021/05/08 05:16:13;;;;;;;2.38;1.25;;;;;;;;;;5034579;28;20037;-80
2021/05/08 05:18:38;;;;;;;1.70;0.80;;;;;;;;;;5018397;28;20423;-80
2021/05/08 05:21:04;;;;;;;2.70;1.58;;;;;;;;;;5014132;28;20045;-79
2021/05/08 05:23:29;;;;;;;2.30;1.10;;;;;;;;;;5038345;28;20040;-79
2021/05/08 05:25:55;;;;;;;2.20;1.20;;;;;;;;;;5038136;28;20166;-79
2021/05/08 05:28:28;;;;;;;2.58;1.02;;;;;;;;;;5021708;28;20127;-79
2021/05/08 05:30:54;;;;;;;2.42;1.23;;;;;;;;;;5037845;28;20040;-79
2021/05/08 05:33:19;;;;;;;2.63;1.50;;;;;;;;;;5054281;28;20068;-79
2021/05/08 05:35:56;;;;;;;1.38;0.88;;;;;;;;;;5019643;28;20416;-79
2021/05/08 05:38:24;;;;;;;2.22;1.10;;;;;;;;;;5018327;28;20033;-79
2021/05/08 05:40:53;;;;;;;2.03;1.00;;;;;;;;;;5002028;28;20128;-80
2021/05/08 05:43:18;;;;;;;2.67;1.27;;;;;;;;;;5002307;28;20116;-80
2021/05/08 05:45:44;;;;;;;1.95;1.08;;;;;;;;;;5034124;28;20040;-79
2021/05/08 05:48:09;;;;;;;1.67;1.13;;;;;;;;;;5017812;28;20102;-79
2021/05/08 05:50:39;;;;;;;1.80;1.00;;;;;;;;;;5018028;28;20060;-80
2021/05/08 05:53:04;;;;;;;1.50;0.90;;;;;;;;;;5017639;28;20418;-80
2021/05/08 05:55:30;;;;;;;1.77;0.88;;;;;;;;;;5018057;28;20048;-80
2021/05/08 05:57:55;;;;;;;1.73;1.02;;;;;;;;;;5039144;28;20064;-79
2021/05/08 06:00:21;;;;;;;2.10;0.90;;;;;;;;;;5034840;28;20106;-79
2021/05/08 06:02:46;;;;;;;2.65;1.05;;;;;;;;;;5022976;28;20111;-79
2021/05/08 06:05:12;;;;;;;2.08;0.63;;;;;;;;;;5018272;28;20854;-79
2021/05/08 06:07:37;;;;;;;2.97;1.17;;;;;;;;;;5052808;28;20480;-79
2021/05/08 06:10:04;;;;;;;2.33;1.05;;;;;;;;;;5037584;28;20055;-79
2021/05/08 06:12:30;;;;;;;2.72;0.80;;;;;;;;;;5021028;28;20047;-79
2021/05/08 06:14:59;;;;;;;2.13;1.15;;;;;;;;;;5037515;28;20033;-80
2021/05/08 06:17:24;;;;;;;1.92;0.75;;;;;;;;;;5053359;28;20506;-79
2021/05/08 06:19:50;;;;;;;2.78;1.00;;;;;;;;;;5008343;28;20068;-79
2021/05/08 06:22:15;;;;;;;2.30;0.98;;;;;;;;;;5042823;28;20106;-78
2021/05/08 06:24:40;;;;;;;2.20;0.90;;;;;;;;;;5033727;28;20052;-79
2021/05/08 06:27:06;;;;;;;3.03;1.00;;;;;;;;;;5000776;28;20158;-78
2021/05/08 06:29:32;;;;;;;2.33;1.10;;;;;;;;;;5000822;28;20036;-78
2021/05/08 06:31:57;;;;;;;1.67;0.90;;;;;;;;;;5032912;28;20029;-78
2021/05/08 06:34:22;;;;;;;2.70;1.05;;;;;;;;;;5023499;28;20118;-80
2021/05/08 06:36:48;;;;;;;5.20;1.20;;;;;;;;;;5022395;28;20049;-81
2021/05/08 06:39:13;;;;;;;1.73;0.70;;;;;;;;;;5000810;28;20036;-81
2021/05/08 06:41:39;;;;;;;1.80;0.70;;;;;;;;;;5000133;28;20683;-84
2021/05/08 06:44:04;;;;;;;1.70;0.90;;;;;;;;;;5034034;28;20575;-82
2021/05/08 06:46:30;;;;;;;4.32;1.40;;;;;;;;;;5017341;28;20041;-82
2021/05/08 06:48:55;;;;;;;3.67;2.42;;;;;;;;;;5022313;28;20453;-83
2021/05/08 06:51:21;;;;;;;4.60;2.40;;;;;;;;;;5034535;28;20032;-81
2021/05/08 06:53:46;;;;;;;4.00;2.30;;;;;;;;;;5057481;28;20041;-80
2021/05/08 06:56:13;;;;;;;5.93;2.28;;;;;;;;;;5032891;28;20047;-81
2021/05/08 06:58:40;;;;;;;7.03;2.33;;;;;;;;;;5041065;28;20036;-81
2021/05/08 07:01:05;;;;;;;5.88;2.75;;;;;;;;;;5024742;28;20502;-78
2021/05/08 07:03:31;;;;;;;5.05;2.20;;;;;;;;;;5038017;28;20067;-78
2021/05/08 07:05:56;;;;;;;6.15;2.40;;;;;;;;;;5019668;28;20041;-78
2021/05/08 07:08:22;;;;;;;4.03;1.55;;;;;;;;;;5014053;28;20040;-78
2021/05/08 07:10:48;;;;;;;4.93;1.80;;;;;;;;;;5036947;28;20114;-78
2021/05/08 07:13:14;;;;;;;3.85;1.40;;;;;;;;;;5020484;28;20483;-78
2021/05/08 07:15:40;;;;;;;4.43;1.67;;;;;;;;;;5036834;28;20047;-79
2021/05/08 07:18:06;;;;;;;3.42;1.40;;;;;;;;;;5027203;28;20040;-79
2021/05/08 07:20:32;;;;;;;3.20;1.73;;;;;;;;;;5038434;28;20036;-78
2021/05/08 07:22:57;;;;;;;3.05;1.23;;;;;;;;;;5040333;28;20036;-78
2021/05/08 07:25:23;;;;;;;4.88;1.48;;;;;;;;;;5039746;28;20051;-78
2021/05/08 07:27:48;;;;;;;3.38;1.20;;;;;;;;;;5039889;28;20029;-78
2021/05/08 07:30:14;;;;;;;2.30;1.10;;;;;;;;;;5057106;28;20040;-78
2021/05/08 07:32:39;;;;;;;4.28;1.30;;;;;;;;;;5039712;28;20847;-78
2021/05/08 07:35:06;;;;;;;3.70;1.58;;;;;;;;;;5038894;28;20149;-79
2021/05/08 07:37:31;;;;;;;5.20;1.23;;;;;;;;;;5040483;28;20086;-79
2021/05/08 07:39:57;;;;;;;2.67;1.05;;;;;;;;;;5056491;28;20036;-79
2021/05/08 07:42:22;;;;;;;4.80;1.52;;;;;;;;;;5039978;28;20173;-79
2021/05/08 07:44:48;;;;;;;2.90;1.27;;;;;;;;;;5023069;28;20036;-79
2021/05/08 07:47:13;;;;;;;1.98;0.90;;;;;;;;;;5039560;28;20045;-79
2021/05/08 07:49:39;;;;;;;4.45;1.42;;;;;;;;;;5037130;28;20407;-79
2021/05/08 07:52:05;;;;;;;2.83;1.20;;;;;;;;;;5023495;28;20411;-79
2021/05/08 07:54:30;;;;;;;3.25;1.00;;;;;;;;;;5055568;28;20041;-77
2021/05/08 07:56:56;;;;;;;4.03;1.42;;;;;;;;;;5051617;28;20057;-79
2021/05/08 07:59:21;;;;;;;1.85;0.93;;;;;;;;;;5060799;28;20106;-79
2021/05/08 08:01:47;;;;;;;3.53;1.20;;;;;;;;;;5071846;28;20483;-78
2021/05/08 08:04:12;;;;;;;5.03;1.88;;;;;;;;;;5072447;28;20033;-79
2021/05/08 08:06:38;;;;;;;2.97;1.05;;;;;;;;;;5056119;28;20041;-79
2021/05/08 08:09:04;;;;;;;5.15;1.33;;;;;;;;;;5056134;28;20039;-79
2021/05/08 08:11:30;;;;;;;3.58;1.00;;;;;;;;;;5071693;28;20501;-77
2021/05/08 08:13:56;;;;;;;3.20;1.00;;;;;;;;;;5073725;28;20051;-77
2021/05/08 08:16:21;;;;;;;2.47;1.13;;;;;;;;;;5072223;28;20045;-78
2021/05/08 08:18:47;;;;;;;4.35;1.10;;;;;;;;;;5072861;28;20040;-78
2021/05/08 08:21:12;;;;;;;3.03;1.00;;;;;;;;;;5055945;28;20509;-77
2021/05/08 08:23:37;;;;;;;4.28;1.90;;;;;;;;;;5054401;28;20040;-77
2021/05/08 08:26:03;;;;;;;5.30;2.10;;;;;;;;;;5030372;28;20033;-77
2021/05/08 08:28:30;;;;;;;3.85;2.10;;;;;;;;;;5036247;28;20499;-76
2021/05/08 08:30:56;;;;;;;4.25;1.90;;;;;;;;;;5052284;28;20048;-77
2021/05/08 08:33:21;;;;;;;5.05;1.73;;;;;;;;;;5018951;28;20045;-77
2021/05/08 08:35:47;;;;;;;3.45;1.55;;;;;;;;;;5037496;28;20048;-76
2021/05/08 08:38:13;;;;;;;3.55;1.70;;;;;;;;;;5052496;28;20041;-77
2021/05/08 08:40:39;;;;;;;3.72;2.05;;;;;;;;;;5052452;28;20063;-77
2021/05/08 08:43:04;;;;;;;4.40;1.42;;;;;;;;;;5035283;28;20492;-77
2021/05/08 08:45:30;;;;;;;4.30;1.95;;;;;;;;;;5035502;28;20069;-77
2021/05/08 08:47:55;;;;;;;3.83;1.50;;;;;;;;;;5035716;28;20051;-77
2021/05/08 08:50:20;;;;;;;2.72;1.20;;;;;;;;;;5035750;28;20041;-77
2021/05/08 08:52:47;;;;;;;3.63;1.83;;;;;;;;;;5018387;28;20037;-77
2021/05/08 08:55:12;;;;;;;3.08;1.20;;;;;;;;;;5051824;28;20037;-78
2021/05/08 08:57:43;;;;;;;3.30;1.08;;;;;;;;;;5034940;28;20039;-78
2021/05/08 09:00:14;;;;;;;2.70;1.27;;;;;;;;;;5037802;28;20039;-77
2021/05/08 09:02:40;;;;;;;3.13;0.90;;;;;;;;;;5036011;28;20036;-77
2021/05/08 09:05:07;;;;;;;2.72;1.00;;;;;;;;;;5051706;28;20048;-80
2021/05/08 09:07:32;;;;;;;2.33;1.02;;;;;;;;;;5018205;28;20035;-78
2021/05/08 09:09:58;;;;;;;2.25;1.00;;;;;;;;;;5035108;28;20049;-79
2021/05/08 09:12:27;;;;;;;3.70;0.80;;;;;;;;;;5034564;28;20033;-78
2021/05/08 09:14:52;;;;;;;3.53;1.00;;;;;;;;;;5041464;28;20518;-78
2021/05/08 09:17:21;;;;;;;3.60;1.35;;;;;;;;;;5071662;28;20037;-78
2021/05/08 09:19:53;;;;;;;2.22;0.82;;;;;;;;;;5055030;28;20056;-78
2021/05/08 09:22:35;;;;;;;2.85;0.90;;;;;;;;;;5018730;28;20082;-78
2021/05/08 09:25:10;;;;;;;2.55;1.23;;;;;;;;;;5034638;28;20049;-78
2021/05/08 09:27:36;;;;;;;2.15;1.10;;;;;;;;;;5018997;28;20094;-77
2021/05/08 09:30:08;;;;;;;4.72;1.48;;;;;;;;;;5052400;28;20061;-80
2021/05/08 09:32:41;;;;;;;;;;;;;;;;;;5061776;28;20040;-81
2021/05/08 09:35:09;;;;;;;4.13;1.83;;;;;;;;;;5054120;28;19924;-81
2021/05/08 09:37:35;;;;;;;3.20;1.50;;;;;;;;;;5050939;28;20454;-80
2021/05/08 09:40:17;;;;;;;5.00;1.70;;;;;;;;;;5018283;28;20041;-81
2021/05/08 09:42:47;;;;;;;4.37;1.60;;;;;;;;;;5033988;28;20065;-81
2021/05/08 09:45:13;;;;;;;3.30;1.88;;;;;;;;;;5033751;28;20091;-80
2021/05/08 09:47:39;;;;;;;2.60;1.40;;;;;;;;;;5032474;28;20091;-82
2021/05/08 09:50:04;;;;;;;7.53;1.98;;;;;;;;;;5017540;28;20517;-82
2021/05/08 09:52:49;;;;;;;2.67;1.73;;;;;;;;;;5033958;28;20560;-80
2021/05/08 09:55:15;;;;;;;3.40;1.35;;;;;;;;;;5051325;28;20124;-83
2021/05/08 09:57:40;;;;;;;2.70;1.10;;;;;;;;;;5026514;28;20465;-80
2021/05/08 10:00:38;;;;;;;2.45;1.25;;;;;;;;;;5024352;28;20044;-80
2021/05/08 10:03:14;;;;;;;5.03;0.95;;;;;;;;;;5027629;28;20503;-80
2021/05/08 10:05:40;;;;;;;4.03;1.25;;;;;;;;;;5033921;28;20056;-80
2021/05/08 10:08:06;;;;;;;1.90;1.00;;;;;;;;;;5017328;28;20079;-81
2021/05/08 10:10:32;;;;;;;3.05;0.80;;;;;;;;;;5050441;28;20476;-81
2021/05/08 10:12:57;;;;;;;4.65;1.00;;;;;;;;;;5050267;28;20384;-81
2021/05/08 10:15:23;;;;;;;2.53;0.93;;;;;;;;;;5048748;28;20029;-80
2021/05/08 10:17:50;;;;;;;2.53;0.80;;;;;;;;;;5051339;28;20043;-85
2021/05/08 10:20:16;;;;;;;4.85;0.85;;;;;;;;;;5025650;28;20045;-81
2021/05/08 10:22:59;;;;;;;4.93;1.35;;;;;;;;;;5029614;28;20021;-82
2021/05/08 10:25:26;;;;;;;3.38;0.82;;;;;;;;;;5001249;28;20128;-80
2021/05/08 10:27:51;;;;;;;3.10;0.82;;;;;;;;;;5017150;28;20033;-81
2021/05/08 10:30:30;;;;;;;2.53;0.70;;;;;;;;;;5017343;28;20040;-84
2021/05/08 10:32:57;;;;;;;2.33;0.93;;;;;;;;;;5018488;28;20037;-78
2021/05/08 10:35:24;;;;;;;1.83;0.70;;;;;;;;;;5036545;28;20111;-79
2021/05/08 10:38:34;;;;;;;2.67;1.25;;;;;;;;;;5049672;28;20040;-80
2021/05/08 10:41:02;;;;;;;1.63;0.60;;;;;;;;;;5043170;28;20052;-80
2021/05/08 10:43:49;;;;;;;2.25;0.82;;;;;;;;;;5033844;28;20041;-81
2021/05/08 10:46:16;;;;;;;2.47;0.93;;;;;;;;;;5050086;28;20754;-80
2021/05/08 10:49:07;;;;;;;2.08;0.85;;;;;;;;;;5053429;28;20037;-80
2021/05/08 10:51:55;;;;;;;2.45;1.00;;;;;;;;;;5057850;28;20574;-79
2021/05/08 10:54:42;;;;;;;1.63;0.70;;;;;;;;;;5053337;28;20407;-79
2021/05/08 10:57:27;;;;;;;6.85;2.38;;;;;;;;;;5053268;28;20036;-80
2021/05/08 11:00:05;;;;;;;4.75;1.58;;;;;;;;;;5038775;28;20123;-79
2021/05/08 11:02:45;;;;;;;4.13;2.03;;;;;;;;;;5070269;28;20119;-80
2021/05/08 11:05:34;;;;;;;11.13;3.42;;;;;;;;;;5068332;28;20040;-80
2021/05/08 11:08:00;;;;;;;3.97;1.55;;;;;;;;;;5040410;28;20041;-80
2021/05/08 11:10:45;;;;;;;5.20;1.55;;;;;;;;;;5020901;28;20102;-79
2021/05/08 11:13:17;;;;;;;5.22;1.50;;;;;;;;;;5016128;28;20113;-80
2021/05/08 11:15:55;;;;;;;8.55;1.25;;;;;;;;;;5017385;28;20033;-80
2021/05/08 11:18:29;;;;;;;3.30;1.38;;;;;;;;;;5042919;28;20077;-80
2021/05/08 11:20:58;;;;;;;2.88;1.30;;;;;;;;;;5065817;28;20041;-80
2021/05/08 11:23:24;;;;;;;5.93;1.40;;;;;;;;;;5020120;28;20082;-81
2021/05/08 11:25:49;;;;;;;6.00;1.35;;;;;;;;;;5018900;28;20211;-81
2021/05/08 11:28:15;;;;;;;2.95;0.90;;;;;;;;;;5016297;28;20052;-81
2021/05/08 11:30:56;;;;;;;5.28;1.17;;;;;;;;;;5033429;28;20036;-79
2021/05/08 11:33:27;;;;;;;3.22;1.10;;;;;;;;;;5016169;28;20041;-80
2021/05/08 11:35:59;;;;;;;6.07;1.03;;;;;;;;;;5017616;28;20083;-81
2021/05/08 11:38:25;;;;;;;5.60;1.20;;;;;;;;;;5020631;28;20037;-81
2021/05/08 11:40:51;;;;;;;5.55;2.13;;;;;;;;;;5020147;28;20041;-81
2021/05/08 11:43:26;;;;;;;6.50;3.20;;;;;;;;;;5019785;28;20031;-80
2021/05/08 11:45:55;;;;;;;11.95;3.00;;;;;;;;;;5020133;28;20398;-80
2021/05/08 11:48:20;;;;;;;9.18;3.42;;;;;;;;;;5020249;28;20032;-81
2021/05/08 11:50:49;;;;;;;5.63;2.65;;;;;;;;;;5036456;28;20495;-81
2021/05/08 11:53:17;;;;;;;6.50;3.63;;;;;;;;;;5020522;28;20044;-81
2021/05/08 11:55:46;;;;;;;10.65;3.70;;;;;;;;;;5019979;28;20059;-80
2021/05/08 11:58:33;;;;;;;5.78;3.00;;;;;;;;;;5019981;28;20123;-81
2021/05/08 12:00:58;;;;;;;6.78;2.90;;;;;;;;;;5040129;28;20044;-81
2021/05/08 12:03:25;;;;;;;5.80;2.38;;;;;;;;;;5014303;28;20117;-81
2021/05/08 12:05:50;;;;;;;5.55;2.50;;;;;;;;;;5039918;28;20119;-80
2021/05/08 12:08:23;;;;;;;4.03;2.42;;;;;;;;;;5023266;28;20077;-81
2021/05/08 12:10:49;;;;;;;5.10;2.70;;;;;;;;;;5023882;28;20047;-80
2021/05/08 12:13:14;;;;;;;6.15;1.88;;;;;;;;;;5022716;28;20036;-81
2021/05/08 12:15:46;;;;;;;3.17;1.98;;;;;;;;;;5022806;28;20132;-81
2021/05/08 12:18:12;;;;;;;3.85;1.92;;;;;;;;;;5039938;28;20034;-81
2021/05/08 12:20:44;;;;;;;4.97;1.90;;;;;;;;;;5055954;28;20040;-82
2021/05/08 12:23:13;;;;;;;2.63;1.50;;;;;;;;;;5019427;28;20036;-81
2021/05/08 12:25:38;;;;;;;4.15;1.75;;;;;;;;;;5003280;28;20279;-80
2021/05/08 12:28:13;;;;;;;3.25;1.30;;;;;;;;;;5019256;28;20522;-81
2021/05/08 12:30:39;;;;;;;2.92;1.58;;;;;;;;;;5035690;28;20033;-81
2021/05/08 12:33:04;;;;;;;2.72;1.27;;;;;;;;;;5002858;28;20435;-81
2021/05/08 12:35:30;;;;;;;2.78;1.15;;;;;;;;;;5004812;28;20041;-81
2021/05/08 12:37:55;;;;;;;3.88;1.50;;;;;;;;;;5036055;28;20049;-80
2021/05/08 12:40:31;;;;;;;3.85;1.35;;;;;;;;;;5019349;28;20461;-81
2021/05/08 12:42:56;;;;;;;2.35;1.23;;;;;;;;;;5038862;28;20067;-81
2021/05/08 12:45:22;;;;;;;4.20;1.35;;;;;;;;;;5038233;28;20036;-81
2021/05/08 12:47:47;;;;;;;2.78;1.00;;;;;;;;;;5038702;28;20395;-81
2021/05/08 12:50:15;;;;;;;2.45;1.33;;;;;;;;;;5039231;28;20040;-81
2021/05/08 12:52:58;;;;;;;2.50;1.27;;;;;;;;;;5039464;28;20553;-81
2021/05/08 12:55:28;;;;;;;1.63;1.00;;;;;;;;;;5024479;28;20495;-81
2021/05/08 12:57:54;;;;;;;1.92;0.90;;;;;;;;;;5022186;28;20025;-82
2021/05/08 13:00:20;;;;;;;2.10;0.98;;;;;;;;;;5038350;28;20039;-81
2021/05/08 13:02:47;;;;;;;3.90;1.08;;;;;;;;;;5038849;28;20075;-81
2021/05/08 13:05:17;;;;;;;2.10;1.15;;;;;;;;;;5038856;28;20515;-80
2021/05/08 13:08:02;;;;;;;2.35;1.00;;;;;;;;;;5055494;28;20513;-81
2021/05/08 13:10:31;;;;;;;2.03;0.85;;;;;;;;;;5040147;28;20406;-81
2021/05/08 13:13:02;;;;;;;2.17;0.80;;;;;;;;;;5038767;28;20109;-81
2021/05/08 13:15:37;;;;;;;3.45;1.10;;;;;;;;;;5054660;28;20405;-81
2021/05/08 13:18:03;;;;;;;2.33;0.93;;;;;;;;;;5021975;28;20032;-81
2021/05/08 13:20:33;;;;;;;2.08;0.70;;;;;;;;;;5054853;28;20421;-81
2021/05/08 13:22:59;;;;;;;2.60;0.82;;;;;;;;;;5018482;28;20510;-81
2021/05/08 13:25:24;;;;;;;1.77;0.60;;;;;;;;;;5018476;28;20048;-81
2021/05/08 13:27:50;;;;;;;1.92;0.90;;;;;;;;;;5018185;28;20037;-81
2021/05/08 13:30:20;;;;;;;2.00;0.85;;;;;;;;;;5018221;28;20053;-81
2021/05/08 13:32:46;;;;;;;1.40;0.70;;;;;;;;;;5018220;28;20041;-81
2021/05/08 13:35:12;;;;;;;1.73;0.77;;;;;;;;;;5028354;28;20049;-81
2021/05/08 13:37:37;;;;;;;1.83;0.73;;;;;;;;;;5054839;28;20521;-82
2021/05/08 13:40:03;;;;;;;1.75;0.73;;;;;;;;;;5038030;28;20162;-82
2021/05/08 13:42:29;;;;;;;1.80;0.95;;;;;;;;;;5037747;28;20025;-81
2021/05/08 13:44:55;;;;;;;2.13;0.60;;;;;;;;;;5037728;28;20039;-81
2021/05/08 13:47:24;;;;;;;2.13;0.95;;;;;;;;;;5021515;28;20032;-81
2021/05/08 13:49:50;;;;;;;3.10;1.15;;;;;;;;;;5022404;28;20063;-81
2021/05/08 13:52:16;;;;;;;2.13;0.60;;;;;;;;;;5021530;28;20174;-81
2021/05/08 13:54:41;;;;;;;1.20;0.57;;;;;;;;;;5021542;28;20050;-81
2021/05/08 13:57:07;;;;;;;1.77;0.60;;;;;;;;;;5021069;28;20064;-82
2021/05/08 13:59:32;;;;;;;3.00;0.60;;;;;;;;;;5020545;28;20046;-82
2021/05/08 14:01:58;;;;;;;1.13;0.43;;;;;;;;;;5037403;28;20453;-82
2021/05/08 14:04:23;;;;;;;1.75;0.60;;;;;;;;;;5020559;28;20399;-81
2021/05/08 14:06:49;;;;;;;3.80;0.85;;;;;;;;;;5035897;28;20052;-80
2021/05/08 14:09:15;;;;;;;3.33;0.82;;;;;;;;;;5018774;28;20100;-81
2021/05/08 14:11:40;;;;;;;2.20;0.85;;;;;;;;;;5018273;28;20043;-81
2021/05/08 14:14:06;;;;;;;2.72;0.70;;;;;;;;;;5053191;28;20430;-79
2021/05/08 14:16:31;;;;;;;5.05;0.80;;;;;;;;;;5048959;28;20423;-78
2021/05/08 14:18:57;;;;;;;4.60;0.85;;;;;;;;;;5036676;28;20044;-78
2021/05/08 14:21:22;;;;;;;2.88;1.02;;;;;;;;;;5053683;28;20032;-78
2021/05/08 14:23:47;;;;;;;4.05;1.00;;;;;;;;;;5037263;28;20445;-79
2021/05/08 14:26:13;;;;;;;3.72;1.25;;;;;;;;;;5037175;28;20067;-79
2021/05/08 14:28:38;;;;;;;2.70;0.98;;;;;;;;;;5034422;28;20123;-78
2021/05/08 14:31:04;;;;;;;2.83;0.73;;;;;;;;;;5017629;28;20439;-80
2021/05/08 14:33:29;;;;;;;2.38;0.88;;;;;;;;;;5043716;28;20422;-78
2021/05/08 14:35:55;;;;;;;2.90;0.60;;;;;;;;;;5036745;28;20418;-79
2021/05/08 14:38:21;;;;;;;4.80;0.73;;;;;;;;;;5037074;28;20058;-79
2021/05/08 14:40:47;;;;;;;1.70;0.60;;;;;;;;;;5036933;28;20120;-78
2021/05/08 14:43:12;;;;;;;4.03;0.80;;;;;;;;;;5036582;28;20055;-79
2021/05/08 14:45:37;;;;;;;2.70;0.65;;;;;;;;;;5020398;28;20418;-78